Аэропорт: Угольный. Анадырь

ICAO: UHMA

METAR:
2018/05/20 23:00
UHMA 202300Z 34005MPS CAVOK 00/M01 Q1014 R88/CLRD60 NOSIG RMK END R01/36005MPS QFE756/1008
METAR:
2018/05/20 21:21
TAF UHMA 201951Z 2021/2121 36003MPS 9999 SCT007 SCT030 
      TEMPO 2021/2024 30005MPS 0500 FZFG VV003 
      TEMPO 2100/2121 13006MPS 1000 BR BKN007